Time;durP1;ratioP1;P1;durP2;ratioP2;P2;SDS_P1;SDS_P2;PMS_P1;PMS_P2;Temp;Humidity;BMP_temperature;BMP_pressure;BME280_temperature;BME280_humidity;BME280_pressure;Samples;Min_cycle;Max_cycle;Signal;HPM_P1;HPM_P2
2022/04/20 00:01:54;;;;;;;;;29.33;24.33;;;;;14.16;51.88;100750.59;5057024;28;45489;-70
2022/04/20 00:04:22;;;;;;;;;23.00;20.00;;;;;14.30;51.77;100764.13;5038729;28;45644;-69
2022/04/20 00:06:48;;;;;;;;;30.00;26.00;;;;;14.21;52.08;100751.75;5055017;28;47036;-70
2022/04/20 00:09:17;;;;;;;;;25.00;22.00;;;;;13.99;52.16;100731.88;5038214;28;45927;-71
2022/04/20 00:11:43;;;;;;;;;24.33;23.33;;;;;14.05;52.32;100730.38;5055262;28;45550;-70
2022/04/20 00:14:08;;;;;;;;;28.00;28.00;;;;;14.24;52.20;100767.50;5057465;28;45531;-71
2022/04/20 00:19:23;;;;;;;;;28.00;23.67;;;;;14.23;52.41;100760.47;5054920;28;45435;-69
2022/04/20 00:21:48;;;;;;;;;32.00;28.67;;;;;13.87;52.26;100711.84;5040905;28;45429;-69
2022/04/20 00:24:14;;;;;;;;;27.67;25.00;;;;;13.68;52.50;100696.94;5040492;28;45535;-69
2022/04/20 00:26:45;;;;;;;;;35.67;31.67;;;;;13.94;52.65;100738.72;5053947;28;47452;-69
2022/04/20 00:29:13;;;;;;;;;32.33;29.67;;;;;13.82;52.75;100732.03;5054345;28;45351;-71
2022/04/20 00:31:39;;;;;;;;;34.67;30.00;;;;;13.86;53.36;100741.41;5037423;28;45621;-70
2022/04/20 00:34:04;;;;;;;;;30.33;27.67;;;;;13.77;53.58;100731.69;5036789;28;45522;-69
2022/04/20 00:36:30;;;;;;;;;34.00;26.33;;;;;13.84;53.30;100746.06;5038156;28;46434;-70
2022/04/20 00:38:55;;;;;;;;;32.00;30.33;;;;;13.81;53.18;100735.69;5053727;28;45400;-68
2022/04/20 00:41:21;;;;;;;;;36.00;31.00;;;;;13.83;53.21;100731.88;5036927;28;45404;-69
2022/04/20 00:43:49;;;;;;;;;38.67;33.33;;;;;13.44;53.46;100662.19;5031461;28;45399;-69
2022/04/20 00:46:19;;;;;;;;;35.00;30.00;;;;;13.80;53.14;100731.34;5026718;28;46907;-69
2022/04/20 00:48:47;;;;;;;;;33.00;29.67;;;;;13.24;53.86;100642.13;5038443;28;45459;-69
2022/04/20 00:51:12;;;;;;;;;36.67;30.67;;;;;13.87;53.55;100748.41;5037136;28;45514;-68
2022/04/20 00:53:38;;;;;;;;;33.00;30.67;;;;;13.40;53.62;100676.84;5037959;28;45628;-68
2022/04/20 00:56:03;;;;;;;;;38.67;34.33;;;;;13.62;53.80;100723.50;5037894;28;45884;-68
2022/04/20 00:58:32;;;;;;;;;40.00;33.33;;;;;13.59;53.99;100729.97;5038166;28;45451;-69
2022/04/20 01:01:00;;;;;;;;;37.00;33.00;;;;;13.56;53.90;100708.09;5037929;28;45330;-70
2022/04/20 01:03:26;;;;;;;;;39.33;32.67;;;;;13.68;53.95;100729.00;5037088;28;45337;-68
2022/04/20 01:05:51;;;;;;;;;38.67;31.00;;;;;13.74;53.91;100740.88;5037720;28;45514;-68
2022/04/20 01:08:17;;;;;;;;;38.33;34.67;;;;;13.75;53.74;100739.88;5037954;28;45414;-68
2022/04/20 01:10:42;;;;;;;;;35.67;32.67;;;;;13.57;53.91;100707.09;5037913;28;45414;-68
2022/04/20 01:13:08;;;;;;;;;41.67;34.00;;;;;13.55;54.08;100706.44;5038124;28;45308;-67
2022/04/20 01:15:34;;;;;;;;;41.33;35.67;;;;;13.59;53.94;100723.78;5037804;28;45559;-68
2022/04/20 01:18:08;;;;;;;;;35.33;31.67;;;;;13.67;53.98;100739.88;5036413;28;45505;-67
2022/04/20 01:20:34;;;;;;;;;38.00;32.33;;;;;13.58;54.07;100716.78;5036554;28;45392;-68
2022/04/20 01:22:59;;;;;;;;;44.33;35.00;;;;;13.58;54.06;100709.59;5037540;28;45235;-68
2022/04/20 01:25:25;;;;;;;;;45.25;35.50;;;;;13.23;54.44;100659.16;5037564;28;46123;-69
2022/04/20 01:27:51;;;;;;;;;45.00;36.00;;;;;13.38;54.37;100686.88;5051148;28;45520;-70
2022/04/20 01:30:16;;;;;;;;;43.75;35.00;;;;;13.51;53.96;100721.13;5058044;28;45258;-67
2022/04/20 01:32:41;;;;;;;;;40.00;34.33;;;;;13.57;54.20;100726.63;5036660;28;45629;-68
2022/04/20 01:35:08;;;;;;;;;44.75;37.50;;;;;13.62;54.41;100723.50;5019248;28;46665;-69
2022/04/20 01:37:34;;;;;;;;;41.00;35.00;;;;;13.57;54.66;100726.63;5019501;28;45255;-69
2022/04/20 01:39:59;;;;;;;;;40.50;35.25;;;;;13.42;54.55;100709.59;5037461;28;45411;-69
2022/04/20 01:42:25;;;;;;;;;40.25;34.25;;;;;13.53;54.55;100730.63;5052254;28;45438;-69
2022/04/20 01:44:51;;;;;;;;;47.75;39.00;;;;;13.57;54.76;100729.31;5039271;28;48494;-68
2022/04/20 01:47:16;;;;;;;;;46.00;37.00;;;;;13.61;54.32;100729.81;5039079;28;45782;-69
2022/04/20 01:49:41;;;;;;;;;44.67;37.33;;;;;13.48;54.41;100719.63;5038945;28;45660;-68
2022/04/20 01:52:07;;;;;;;;;41.67;35.67;;;;;13.62;54.29;100743.03;5057315;28;45567;-69
2022/04/20 01:54:33;;;;;;;;;41.67;35.00;;;;;13.29;54.42;100680.69;5057674;28;45448;-68
2022/04/20 01:56:58;;;;;;;;;48.75;39.75;;;;;13.31;54.73;100691.19;5057137;28;45483;-68
2022/04/20 01:59:24;;;;;;;;;47.00;38.25;;;;;13.53;54.70;100735.97;5057353;28;45697;-68
2022/04/20 02:04:34;;;;;;;;;48.75;39.25;;;;;13.07;55.15;100670.56;5057157;28;45554;-69
2022/04/20 02:06:59;;;;;;;;;47.50;39.50;;;;;13.32;54.35;100703.53;5056907;28;45352;-68
2022/04/20 02:09:25;;;;;;;;;46.00;38.50;;;;;13.35;55.58;100732.59;5057010;28;45448;-69
2022/04/20 02:11:51;;;;;;;;;51.00;41.75;;;;;13.08;55.18;100699.78;5038958;28;45561;-69
2022/04/20 02:14:16;;;;;;;;;49.50;41.50;;;;;13.22;55.93;100726.91;5056904;28;45578;-69
2022/04/20 02:16:42;;;;;;;;;48.00;39.50;;;;;13.06;56.06;100701.78;5055379;28;45467;-69
2022/04/20 02:19:10;;;;;;;;;49.25;40.00;;;;;13.17;55.74;100724.66;5057144;28;45558;-69
2022/04/20 02:21:35;;;;;;;;;46.00;38.25;;;;;13.17;56.04;100700.63;5057223;28;45379;-68
2022/04/20 02:24:00;;;;;;;;;48.00;40.25;;;;;13.01;56.39;100704.09;5056905;28;46259;-69
2022/04/20 02:26:26;;;;;;;;;49.00;40.00;;;;;13.02;55.92;100688.91;5056581;28;45446;-69
2022/04/20 02:28:52;;;;;;;;;52.75;40.50;;;;;13.22;55.73;100706.38;5056789;28;45444;-69
2022/04/20 02:31:17;;;;;;;;;51.50;41.75;;;;;13.27;55.73;100700.53;5056954;28;45563;-70
2022/04/20 02:33:45;;;;;;;;;48.75;40.50;;;;;13.23;55.77;100701.88;5056494;28;45491;-69
2022/04/20 02:36:11;;;;;;;;;56.00;43.75;;;;;13.25;55.52;100705.22;5055617;28;45371;-70
2022/04/20 02:38:39;;;;;;;;;49.00;41.50;;;;;13.14;55.74;100671.59;5056741;28;45321;-69
2022/04/20 02:41:05;;;;;;;;;55.50;44.00;;;;;13.06;55.77;100669.75;5056274;28;45492;-69
2022/04/20 02:43:30;;;;;;;;;51.75;41.75;;;;;13.13;56.04;100691.28;5055156;28;48744;-69
2022/04/20 02:45:56;;;;;;;;;50.75;42.25;;;;;13.02;56.51;100687.09;5055539;28;45410;-68
2022/04/20 02:48:22;;;;;;;;;53.50;44.00;;;;;12.44;57.02;100605.13;5056828;28;45428;-69
2022/04/20 02:50:47;;;;;;;;;49.00;40.75;;;;;12.97;56.80;100680.53;5038760;28;45541;-68
2022/04/20 02:53:13;;;;;;;;;52.00;42.25;;;;;12.94;56.56;100675.53;5056174;28;45538;-68
2022/04/20 02:55:39;;;;;;;;;54.50;42.75;;;;;12.99;56.57;100679.38;5056180;28;45384;-69
2022/04/20 02:58:04;;;;;;;;;51.50;42.75;;;;;13.01;56.21;100680.06;5054985;28;45630;-68
2022/04/20 03:00:29;;;;;;;;;50.75;42.25;;;;;13.11;55.83;100682.59;5057937;28;45159;-69
2022/04/20 03:02:55;;;;;;;;;53.00;44.00;;;;;13.00;56.30;100664.19;5059815;28;46557;-68
2022/04/20 03:05:20;;;;;;;;;56.50;45.00;;;;;12.49;56.36;100586.00;5041634;28;45302;-68
2022/04/20 03:07:49;;;;;;;;;54.75;42.25;;;;;12.92;56.59;100659.69;5042115;28;45331;-68
2022/04/20 03:10:14;;;;;;;;;52.25;43.00;;;;;12.97;56.37;100660.03;5042213;28;45563;-69
2022/04/20 03:12:40;;;;;;;;;52.25;43.50;;;;;12.99;56.30;100663.38;5041742;28;48168;-68
2022/04/20 03:15:06;;;;;;;;;52.75;41.25;;;;;12.91;56.67;100646.50;5059667;28;45398;-68
2022/04/20 03:17:31;;;;;;;;;52.00;42.00;;;;;13.05;56.56;100661.91;5059827;28;45443;-68
2022/04/20 03:19:56;;;;;;;;;53.75;43.75;;;;;12.96;56.28;100639.66;5059660;28;45270;-68
2022/04/20 03:22:22;;;;;;;;;57.50;45.25;;;;;13.15;56.18;100669.75;5043150;28;47228;-69
2022/04/20 03:24:47;;;;;;;;;52.50;43.25;;;;;13.08;56.33;100667.75;5059556;28;45495;-69
2022/04/20 03:27:13;;;;;;;;;55.50;44.75;;;;;13.14;56.25;100678.75;5059741;28;45488;-69
2022/04/20 03:29:40;;;;;;;;;55.00;44.75;;;;;13.06;56.12;100669.75;5059865;28;45486;-69
2022/04/20 03:32:10;;;;;;;;;54.25;43.00;;;;;13.13;56.10;100680.59;5059330;28;45580;-69
2022/04/20 03:34:39;;;;;;;;;55.00;43.75;;;;;12.75;56.01;100612.59;5059537;28;45497;-69
2022/04/20 03:37:06;;;;;;;;;53.00;43.75;;;;;13.10;55.97;100687.09;5046742;28;45492;-68
2022/04/20 03:39:34;;;;;;;;;56.00;45.50;;;;;13.10;56.20;100697.78;5059512;28;45207;-69
2022/04/20 03:42:00;;;;;;;;;55.75;43.75;;;;;12.64;55.74;100615.56;5058904;28;45431;-68
2022/04/20 03:44:26;;;;;;;;;56.50;47.00;;;;;13.04;56.53;100695.75;5058923;28;45441;-70
2022/04/20 03:46:52;;;;;;;;;57.00;46.25;;;;;12.58;56.20;100626.84;5059419;28;45412;-67
2022/04/20 03:49:18;;;;;;;;;57.00;46.00;;;;;12.95;56.36;100693.22;5059682;28;45592;-68
2022/04/20 03:51:45;;;;;;;;;56.75;46.00;;;;;12.61;56.37;100635.34;5058801;28;45799;-69
2022/04/20 03:54:11;;;;;;;;;56.50;46.75;;;;;12.99;56.46;100698.06;5040852;28;45272;-69
2022/04/20 03:59:20;;;;;;;;;53.50;44.75;;;;;12.91;56.31;100683.84;5059318;28;45228;-70
2022/04/20 04:01:45;;;;;;;;;60.75;48.50;;;;;12.92;55.99;100694.38;5058383;28;46175;-71
2022/04/20 04:04:11;;;;;;;;;57.00;45.25;;;;;12.90;56.47;100696.38;5040440;28;45409;-68
2022/04/20 04:06:37;;;;;;;;;58.00;45.75;;;;;12.96;55.97;100701.03;5058495;28;45315;-69
2022/04/20 04:09:02;;;;;;;;;57.00;46.50;;;;;12.62;56.21;100641.56;5074289;28;45282;-67
2022/04/20 04:11:27;;;;;;;;;58.75;48.50;;;;;12.95;56.21;100698.53;5057958;28;46140;-69
2022/04/20 04:13:53;;;;;;;;;59.75;46.75;;;;;12.85;56.00;100681.84;5058704;28;45197;-68
2022/04/20 04:16:18;;;;;;;;;57.50;47.00;;;;;12.93;56.33;100685.38;5058616;28;45425;-68
2022/04/20 04:18:44;;;;;;;;;56.75;46.50;;;;;12.83;56.18;100668.66;5058848;28;45354;-68
2022/04/20 04:21:09;;;;;;;;;56.25;45.75;;;;;12.83;56.66;100683.84;5058357;28;45911;-69
2022/04/20 04:23:34;;;;;;;;;57.25;45.50;;;;;12.91;56.67;100689.19;5058047;28;45388;-70
2022/04/20 04:26:00;;;;;;;;;54.00;44.50;;;;;12.86;56.66;100691.50;5040411;28;45427;-69
2022/04/20 04:28:25;;;;;;;;;60.00;48.25;;;;;12.99;56.38;100694.56;5058770;28;45341;-68
2022/04/20 04:30:51;;;;;;;;;59.50;46.00;;;;;12.90;56.50;100683.03;5058085;28;46382;-70
2022/04/20 04:33:16;;;;;;;;;58.00;46.50;;;;;12.61;56.48;100639.84;5057090;28;45489;-67
2022/04/20 04:35:41;;;;;;;;;61.50;47.00;;;;;12.85;56.16;100693.34;5058184;28;45284;-69
2022/04/20 04:38:07;;;;;;;;;56.75;46.75;;;;;12.85;56.31;100697.84;5058461;28;45236;-69
2022/04/20 04:40:32;;;;;;;;;55.75;45.25;;;;;12.77;56.46;100693.28;5058367;28;46411;-70
2022/04/20 04:43:01;;;;;;;;;60.75;48.25;;;;;12.75;56.38;100688.13;5040356;28;45580;-69
2022/04/20 04:50:55;;;;;;;;;60.00;48.00;;;;;12.57;55.78;100670.50;5057803;28;45487;-69
2022/04/20 04:53:20;;;;;;;;;61.50;47.00;;;;;12.68;56.46;100719.09;5057947;28;45328;-69
2022/04/20 04:55:46;;;;;;;;;64.50;49.00;;;;;11.82;56.51;100569.81;5058234;28;45471;-69
2022/04/20 04:58:11;;;;;;;;;61.50;48.00;;;;;12.79;56.35;100720.63;5058220;28;45230;-69
2022/04/20 05:00:36;;;;;;;;;63.00;49.50;;;;;12.69;56.80;100690.59;5056698;28;48018;-70
2022/04/20 05:03:02;;;;;;;;;58.75;47.50;;;;;12.85;56.40;100713.84;5056486;28;45214;-69
2022/04/20 05:05:27;;;;;;;;;62.50;49.50;;;;;12.25;55.74;100616.03;5058047;28;45518;-69
2022/04/20 05:07:54;;;;;;;;;65.50;49.75;;;;;12.73;55.75;100683.94;5057894;28;45463;-69
2022/04/20 05:10:23;;;;;;;;;59.00;47.75;;;;;12.79;56.14;100694.78;5057130;28;46016;-68
2022/04/20 05:12:48;;;;;;;;;61.50;49.75;;;;;12.84;56.42;100702.34;5057587;28;45461;-68
2022/04/20 05:15:14;;;;;;;;;60.50;48.75;;;;;12.41;56.02;100620.59;5057835;28;45210;-70
2022/04/20 05:17:39;;;;;;;;;57.00;46.25;;;;;12.85;55.72;100700.50;5039342;28;45678;-70
2022/04/20 05:20:05;;;;;;;;;63.00;49.50;;;;;12.80;55.59;100684.97;5057662;28;46182;-70
2022/04/20 05:22:31;;;;;;;;;61.75;49.75;;;;;12.74;55.71;100680.28;5056833;28;45451;-70
2022/04/20 05:24:57;;;;;;;;;62.00;50.25;;;;;12.94;55.51;100703.03;5057061;28;45326;-69
2022/04/20 05:27:22;;;;;;;;;57.50;46.25;;;;;12.90;55.62;100690.19;5056618;28;45453;-69
2022/04/20 05:29:48;;;;;;;;;58.25;47.00;;;;;12.93;55.10;100701.38;5056768;28;46872;-70
2022/04/20 05:32:13;;;;;;;;;59.25;46.25;;;;;12.63;55.34;100643.22;5041471;28;46108;-69
2022/04/20 05:34:39;;;;;;;;;60.00;48.00;;;;;13.09;55.18;100717.47;5057097;28;45540;-69
2022/04/20 05:42:33;;;;;;;;;65.50;51.00;;;;;12.58;55.35;100611.69;5052353;28;45404;-71
2022/04/20 05:44:58;;;;;;;;;62.75;48.50;;;;;13.30;54.93;100721.56;5051483;28;45432;-69
2022/04/20 05:47:24;;;;;;;;;61.50;49.50;;;;;13.16;54.91;100690.94;5056956;28;45347;-69
2022/04/20 05:49:50;;;;;;;;;56.75;46.25;;;;;13.42;54.61;100728.28;5054902;28;46446;-71
2022/04/20 05:52:15;;;;;;;;;64.00;50.50;;;;;13.38;54.19;100706.41;5036979;28;45573;-72
2022/04/20 05:54:40;;;;;;;;;65.25;50.00;;;;;13.50;54.23;100714.94;5036586;28;45544;-70
2022/04/20 05:57:06;;;;;;;;;58.00;46.25;;;;;13.50;53.86;100714.13;5037834;28;45463;-70
2022/04/20 05:59:31;;;;;;;;;63.50;49.50;;;;;13.56;53.92;100713.44;5055828;28;46583;-68
2022/04/20 06:01:57;;;;;;;;;66.50;51.00;;;;;13.58;53.79;100711.44;5053368;28;45667;-70
2022/04/20 06:04:23;;;;;;;;;62.75;51.00;;;;;13.60;53.74;100712.94;5055689;28;45460;-70
2022/04/20 06:06:52;;;;;;;;;61.50;48.25;;;;;13.64;53.62;100710.81;5056925;28;45586;-70
2022/04/20 06:09:17;;;;;;;;;65.25;51.25;;;;;13.64;52.76;100706.31;5055382;28;46511;-69
2022/04/20 06:11:43;;;;;;;;;61.75;49.50;;;;;13.68;53.36;100710.31;5055408;28;45518;-69
2022/04/20 06:14:08;;;;;;;;;58.50;46.25;;;;;13.67;52.74;100705.97;5056424;28;45320;-69
2022/04/20 06:16:34;;;;;;;;;61.50;49.25;;;;;13.56;53.10;100703.59;5034599;28;45495;-71
2022/04/20 06:19:02;;;;;;;;;58.50;48.00;;;;;13.06;52.94;100629.72;5057209;28;45624;-71
2022/04/20 06:21:27;;;;;;;;;54.75;43.50;;;;;13.35;53.17;100701.38;5056795;28;45526;-70
2022/04/20 06:23:53;;;;;;;;;62.50;48.50;;;;;13.21;53.02;100679.81;5054359;28;45472;-73
2022/04/20 06:26:19;;;;;;;;;57.00;44.00;;;;;13.42;52.71;100712.28;5038342;28;45337;-71
2022/04/20 06:28:44;;;;;;;;;60.00;47.50;;;;;12.87;53.35;100656.66;5054452;28;45665;-73
2022/04/20 06:31:10;;;;;;;;;59.25;46.50;;;;;13.16;53.72;100703.47;5053147;28;45478;-72
2022/04/20 06:33:35;;;;;;;;;61.75;49.50;;;;;13.23;53.17;100688.53;5056424;28;45478;-71
2022/04/20 06:36:01;;;;;;;;;66.50;48.25;;;;;13.42;52.85;100716.78;5062615;28;45440;-71
2022/04/20 06:38:27;;;;;;;;;62.75;49.50;;;;;13.40;52.73;100703.56;5063103;28;46100;-70
2022/04/20 06:41:08;;;;;;;;;59.50;48.25;;;;;13.63;52.38;100714.47;5041641;28;45993;-72
2022/04/20 06:43:35;;;;;;;;;64.00;49.50;;;;;13.74;51.87;100716.81;5053666;28;45429;-70
2022/04/20 06:46:01;;;;;;;;;59.00;47.50;;;;;13.58;51.99;100680.22;5044636;28;45290;-69
2022/04/20 06:48:27;;;;;;;;;61.00;48.75;;;;;13.98;51.28;100710.66;5062181;28;46218;-71
2022/04/20 06:50:53;;;;;;;;;65.75;53.00;;;;;14.33;50.66;100714.81;5062237;28;45317;-72
2022/04/20 06:58:48;;;;;;;;;58.00;48.75;;;;;15.24;48.20;100711.75;5062393;28;45671;-72
2022/04/20 07:01:15;;;;;;;;;64.50;53.00;;;;;14.88;47.88;100637.28;5063128;28;45346;-70
2022/04/20 07:03:40;;;;;;;;;64.00;51.50;;;;;15.52;47.00;100715.59;5062250;28;45567;-71
2022/04/20 07:06:06;;;;;;;;;63.00;50.75;;;;;15.37;47.01;100711.16;5063681;28;45488;-73
2022/04/20 07:08:32;;;;;;;;;55.50;47.50;;;;;15.38;46.99;100710.16;5061809;28;45550;-71
2022/04/20 07:11:01;;;;;;;;;59.50;48.00;;;;;15.21;47.41;100696.84;5060422;28;45375;-72
2022/04/20 07:13:29;;;;;;;;;57.75;46.00;;;;;15.34;46.76;100720.38;5058783;28;45620;-72
2022/04/20 07:15:55;;;;;;;;;57.00;47.25;;;;;15.16;47.21;100690.34;5061945;28;45671;-71
2022/04/20 07:18:26;;;;;;;;;63.00;50.50;;;;;15.58;45.99;100708.69;5062375;28;45470;-72
2022/04/20 07:20:55;;;;;;;;;56.50;44.50;;;;;15.68;45.18;100705.81;5043514;28;45594;-70
2022/04/20 07:23:20;;;;;;;;;54.75;45.75;;;;;15.96;45.04;100706.94;5059969;28;45616;-71
2022/04/20 07:25:49;;;;;;;;;56.50;44.25;;;;;16.46;44.23;100718.09;5062436;28;45317;-72
2022/04/20 07:28:17;;;;;;;;;53.00;43.25;;;;;16.42;43.39;100669.31;5059903;28;45505;-71
2022/04/20 07:30:45;;;;;;;;;52.75;43.00;;;;;16.78;42.94;100668.59;5062657;28;45419;-69
2022/04/20 07:33:16;;;;;;;;;54.75;44.75;;;;;17.46;41.56;100711.19;5061733;28;45626;-70
2022/04/20 07:35:45;;;;;;;;;55.50;44.25;;;;;17.81;41.30;100725.66;5062757;28;45249;-71
2022/04/20 07:38:13;;;;;;;;;54.75;44.50;;;;;18.07;40.78;100703.56;5060878;28;45408;-71
2022/04/20 07:40:39;;;;;;;;;51.75;40.75;;;;;18.38;40.12;100711.25;5062305;28;45536;-70
2022/04/20 07:43:04;;;;;;;;;58.75;47.75;;;;;18.49;38.84;100705.34;5043634;28;45735;-71
2022/04/20 07:45:30;;;;;;;;;41.25;35.00;;;;;18.57;38.96;100687.34;5061577;28;45610;-70
2022/04/20 07:47:57;;;;;;;;;47.25;39.00;;;;;18.77;37.72;100720.66;5058700;28;45690;-71
2022/04/20 07:50:24;;;;;;;;;52.00;41.50;;;;;18.56;37.71;100665.00;5058141;28;45350;-70
2022/04/20 07:52:50;;;;;;;;;42.00;35.33;;;;;18.30;37.11;100621.75;5057661;28;45601;-71
2022/04/20 07:55:19;;;;;;;;;43.00;38.00;;;;;18.77;36.96;100721.50;5059278;28;45402;-72
2022/04/20 07:57:45;;;;;;;;;51.75;42.00;;;;;18.85;37.15;100725.91;5057795;28;48036;-73
2022/04/20 08:00:13;;;;;;;;;44.67;36.33;;;;;18.82;37.00;100720.88;5074330;28;45382;-70
2022/04/20 08:02:43;;;;;;;;;44.33;39.67;;;;;19.00;37.41;100710.44;5058228;28;45437;-73
2022/04/20 08:05:09;;;;;;;;;38.33;34.00;;;;;19.54;36.15;100725.81;5057287;28;45454;-71
2022/04/20 08:07:35;;;;;;;;;50.00;39.33;;;;;19.89;35.33;100720.31;5057001;28;48473;-70
2022/04/20 08:10:03;;;;;;;;;32.33;30.00;;;;;19.70;34.08;100685.00;5058404;28;45550;-71
2022/04/20 08:12:34;;;;;;;;;42.00;36.00;;;;;20.09;34.74;100726.53;5058970;28;45329;-71
2022/04/20 08:15:03;;;;;;;;;42.67;36.00;;;;;20.43;34.02;100716.63;5040276;28;45411;-70
2022/04/20 08:17:29;;;;;;;;;36.33;32.67;;;;;20.72;32.56;100723.41;5037988;28;45756;-71
2022/04/20 08:19:55;;;;;;;;;34.33;31.33;;;;;20.83;32.76;100712.81;5036876;28;45448;-70
2022/04/20 08:22:22;;;;;;;;;40.33;33.00;;;;;20.98;32.16;100709.00;5051858;28;45430;-69
2022/04/20 08:24:48;;;;;;;;;35.67;32.67;;;;;21.15;31.41;100713.72;5044756;28;45465;-71
2022/04/20 08:27:23;;;;;;;;;32.33;29.67;;;;;20.93;31.12;100691.56;5053152;28;45544;-70
2022/04/20 08:29:49;;;;;;;;;39.00;28.67;;;;;21.18;31.40;100705.19;5028693;28;46738;-71
2022/04/20 08:32:18;;;;;;;;;37.67;34.67;;;;;21.43;30.32;100681.00;5038142;28;45385;-71
2022/04/20 08:34:44;;;;;;;;;34.00;31.33;;;;;21.86;30.39;100720.88;5037480;28;45220;-72
2022/04/20 08:37:13;;;;;;;;;28.67;28.67;;;;;21.83;29.61;100659.09;5019923;28;47281;-72
2022/04/20 08:39:41;;;;;;;;;34.67;27.67;;;;;22.08;28.83;100673.47;5021129;28;45598;-70
2022/04/20 08:42:07;;;;;;;;;32.00;30.33;;;;;22.25;28.97;100695.41;5037486;28;45511;-71
2022/04/20 08:44:47;;;;;;;;;31.00;28.00;;;;;21.85;29.28;100589.31;5048025;28;45505;-70
2022/04/20 08:47:19;;;;;;;;;30.33;27.00;;;;;22.91;28.11;100715.63;5056288;28;47409;-72
2022/04/20 08:49:45;;;;;;;;;23.33;23.00;;;;;23.10;27.89;100725.44;5040259;28;45405;-72
2022/04/20 08:54:56;;;;;;;;;26.00;23.00;;;;;23.48;27.05;100703.44;5058444;28;45281;-73
2022/04/20 08:57:31;;;;;;;;;20.67;20.67;;;;;23.97;26.33;100725.94;5057053;28;46049;-73
2022/04/20 08:59:58;;;;;;;;;24.67;23.33;;;;;23.88;26.26;100668.44;5056372;28;45438;-73
2022/04/20 09:02:28;;;;;;;;;28.00;24.00;;;;;24.68;26.39;100711.38;5030195;28;45376;-72
2022/04/20 09:04:55;;;;;;;;;27.00;26.00;;;;;25.14;25.04;100694.19;5019778;28;45528;-70
2022/04/20 09:07:24;;;;;;;;;28.33;26.33;;;;;25.40;24.37;100716.44;5033287;28;46317;-71
2022/04/20 09:09:50;;;;;;;;;27.00;27.00;;;;;25.74;24.44;100715.50;5058113;28;45375;-71
2022/04/20 09:12:18;;;;;;;;;34.00;32.33;;;;;26.43;23.43;100715.34;5029089;28;45257;-70
2022/04/20 09:14:48;;;;;;;;;28.33;27.00;;;;;26.77;23.08;100697.00;5037392;28;45294;-70
2022/04/20 09:17:19;;;;;;;;;30.33;27.67;;;;;27.17;22.77;100665.88;5038780;28;45619;-73
2022/04/20 09:19:47;;;;;;;;;28.00;27.67;;;;;27.69;21.20;100673.56;5051414;28;45433;-72
2022/04/20 09:22:26;;;;;;;;;32.33;29.67;;;;;28.41;21.43;100701.22;5054611;28;45520;-72
2022/04/20 09:25:03;;;;;;;;;26.00;25.00;;;;;28.89;19.96;100644.63;5055866;28;45582;-74
2022/04/20 09:27:30;;;;;;;;;27.67;26.67;;;;;29.83;19.93;100706.47;5057377;28;45298;-70
2022/04/20 09:29:57;;;;;;;;;25.67;25.67;;;;;29.48;19.42;100698.22;5041472;28;45529;-71
2022/04/20 09:32:39;;;;;;;;;27.33;26.33;;;;;29.58;19.85;100703.72;5048551;28;45467;-72
2022/04/20 09:35:10;;;;;;;;;25.00;25.00;;;;;30.10;19.19;100700.78;5041907;28;45496;-71
2022/04/20 09:37:37;;;;;;;;;22.67;20.67;;;;;30.34;19.22;100695.56;5047733;28;46440;-72
2022/04/20 09:40:11;;;;;;;;;21.67;19.67;;;;;30.54;18.48;100635.16;5056025;28;45326;-71
2022/04/20 09:42:38;;;;;;;;;28.00;26.00;;;;;31.21;17.82;100692.59;5054611;28;45591;-74
2022/04/20 09:45:06;;;;;;;;;26.33;25.33;;;;;31.11;17.84;100687.94;5055621;28;45341;-69
2022/04/20 09:50:27;;;;;;;;;20.67;20.67;;;;;32.37;17.08;100678.00;5036838;28;45520;-71
2022/04/20 09:52:58;;;;;;;;;25.33;21.67;;;;;32.65;16.14;100673.59;5036581;28;45507;-69
2022/04/20 09:55:30;;;;;;;;;22.67;21.33;;;;;32.32;16.56;100647.81;5017508;28;45298;-70
2022/04/20 09:58:28;;;;;;;;;17.67;16.67;;;;;32.26;16.86;100687.50;5036256;28;45522;-71
2022/04/20 10:00:54;;;;;;;;;21.67;19.67;;;;;31.99;17.10;100665.16;5021225;28;45528;-70
2022/04/20 10:03:27;;;;;;;;;20.67;19.33;;;;;31.77;16.67;100658.19;5047708;28;45328;-72
2022/04/20 10:05:59;;;;;;;;;22.67;21.33;;;;;31.75;16.74;100660.41;5049100;28;45475;-71
2022/04/20 10:08:25;;;;;;;;;18.00;17.00;;;;;31.56;17.64;100667.66;5050767;28;47707;-70
2022/04/20 10:10:54;;;;;;;;;21.33;21.33;;;;;31.84;17.88;100668.00;5037916;28;45546;-71
2022/04/20 10:13:22;;;;;;;;;21.00;18.33;;;;;31.67;17.22;100673.91;5040305;28;45346;-70
2022/04/20 10:16:05;;;;;;;;;21.00;20.00;;;;;30.91;18.39;100666.06;5038059;28;45733;-71
2022/04/20 10:18:59;;;;;;;;;27.33;23.67;;;;;29.75;19.71;100649.50;5032594;28;47227;-68
2022/04/20 10:21:36;;;;;;;;;17.67;17.67;;;;;28.62;20.32;100652.09;5015112;28;45678;-71
2022/04/20 10:24:05;;;;;;;;;21.33;19.00;;;;;27.51;22.12;100658.34;5056149;28;45340;-70
2022/04/20 10:26:34;;;;;;;;;19.33;17.00;;;;;26.80;22.68;100663.75;5054423;28;45330;-73
2022/04/20 10:29:16;;;;;;;;;15.00;14.00;;;;;26.42;23.93;100661.03;5036857;28;48169;-74
2022/04/20 10:32:22;;;;;;;;;16.67;16.67;;;;;25.32;25.26;100656.97;5044004;28;45640;-69
2022/04/20 10:34:52;;;;;;;;;15.67;15.00;;;;;24.45;26.27;100638.03;5038760;28;45420;-72
2022/04/20 10:37:21;;;;;;;;;20.33;16.67;;;;;23.90;27.69;100652.72;5038612;28;45478;-73
2022/04/20 10:39:49;;;;;;;;;18.67;17.67;;;;;23.37;28.38;100631.78;5056778;28;45408;-71
2022/04/20 10:42:32;;;;;;;;;15.67;15.67;;;;;23.10;29.09;100644.06;5053408;28;45304;-71
2022/04/20 10:45:24;;;;;;;;;20.00;20.00;;;;;22.80;29.84;100654.81;5046383;28;45371;-74
2022/04/20 10:47:55;;;;;;;;;17.00;16.67;;;;;22.03;30.67;100589.38;5044845;28;45626;-71
2022/04/20 10:50:30;;;;;;;;;17.00;16.33;;;;;22.03;30.43;100612.91;5035802;28;47592;-68
2022/04/20 10:53:21;;;;;;;;;24.00;22.00;;;;;21.70;31.49;100645.63;5055915;28;45510;-71
2022/04/20 10:56:07;;;;;;;;;12.67;12.33;;;;;20.93;32.42;100644.78;5055260;28;45677;-73
2022/04/20 10:58:55;;;;;;;;;12.00;12.00;;;;;20.50;33.16;100644.50;5035516;28;45688;-74
2022/04/20 11:01:29;;;;;;;;;17.67;15.00;;;;;20.54;33.15;100637.63;5051788;28;45566;-72
2022/04/20 11:04:01;;;;;;;;;16.33;15.33;;;;;20.67;33.23;100631.38;5054871;28;45336;-67
2022/04/20 11:06:58;;;;;;;;;13.33;12.67;;;;;19.49;34.00;100466.72;5056605;28;45440;-69
2022/04/20 11:09:42;;;;;;;;;16.67;14.00;;;;;20.30;33.95;100625.63;5034173;28;45638;-68
2022/04/20 11:21:09;;;;;;;;;11.33;10.00;;;;;20.14;32.44;100615.25;5049455;28;45575;-67
2022/04/20 11:24:03;;;;;;;;;8.33;7.33;;;;;19.99;32.51;100616.28;5035739;28;46849;-70
2022/04/20 11:26:48;;;;;;;;;11.67;10.67;;;;;19.67;31.91;100601.78;5037789;28;45484;-70
2022/04/20 11:29:24;;;;;;;;;8.67;6.00;;;;;19.56;31.54;100597.00;5057808;28;45489;-69
2022/04/20 11:32:10;;;;;;;;;8.00;7.00;;;;;19.62;32.10;100623.16;5059356;28;45526;-68
2022/04/20 11:34:38;;;;;;;;;5.33;4.33;;;;;19.71;31.28;100616.53;5058700;28;46372;-69
2022/04/20 11:37:09;;;;;;;;;8.33;7.33;;;;;19.70;30.38;100604.06;5040707;28;45285;-69
2022/04/20 11:39:35;;;;;;;;;4.00;4.00;;;;;19.67;30.34;100623.38;5059226;28;45531;-68
2022/04/20 11:42:03;;;;;;;;;2.67;1.00;;;;;19.68;30.22;100606.16;5059197;28;45373;-68
2022/04/20 11:44:59;;;;;;;;;5.00;5.00;;;;;19.66;29.75;100612.78;5057456;28;48258;-70
2022/04/20 11:47:40;;;;;;;;;6.33;6.00;;;;;19.35;29.61;100572.88;5032260;28;45465;-68
2022/04/20 11:53:14;;;;;;;;;5.33;5.00;;;;;19.54;29.34;100558.63;4997070;28;45436;-70
2022/04/20 11:55:47;;;;;;;;;4.00;4.00;;;;;19.68;28.88;100563.00;5046008;28;46215;-71
2022/04/20 11:58:14;;;;;;;;;3.33;3.33;;;;;19.89;29.05;100597.00;5050669;28;45317;-64